Time;durP1;ratioP1;P1;durP2;ratioP2;P2;SDS_P1;SDS_P2;PMS_P1;PMS_P2;Temp;Humidity;BMP_temperature;BMP_pressure;BME280_temperature;BME280_humidity;BME280_pressure;Samples;Min_cycle;Max_cycle;Signal;HPM_P1;HPM_P2
2022/10/14 00:01:10;;;;;;;51.45;35.40;;;;;;;-148.88;100.00;75720.34;4956427;28;20019;-76
2022/10/14 00:03:36;;;;;;;56.58;38.00;;;;;;;-148.88;100.00;75724.41;4956522;29;20042;-75
2022/10/14 00:06:06;;;;;;;54.08;36.63;;;;;;;-148.88;100.00;75716.28;4956156;29;20054;-75
2022/10/14 00:08:32;;;;;;;56.92;37.47;;;;;;;-148.88;100.00;75716.28;4956078;28;20035;-76
2022/10/14 00:11:03;;;;;;;59.58;38.13;;;;;;;-148.88;100.00;75720.34;4956374;28;20023;-75
2022/10/14 00:13:28;;;;;;;59.15;38.72;;;;;;;-148.88;100.00;75722.38;4956164;28;20031;-75
2022/10/14 00:15:54;;;;;;;65.80;39.47;;;;;;;-148.88;100.00;75726.44;4956144;28;20042;-75
2022/10/14 00:18:21;;;;;;;62.30;39.78;;;;;;;-148.88;100.00;75724.41;4955958;29;20019;-75
2022/10/14 00:20:57;;;;;;;63.47;40.42;;;;;;;-148.88;100.00;75728.47;4955872;28;20074;-75
2022/10/14 00:23:23;;;;;;;62.45;40.38;;;;;;;-148.88;100.00;75732.53;4954626;28;20031;-75
2022/10/14 00:25:49;;;;;;;63.05;40.42;;;;;;;-148.88;100.00;75718.31;4956131;28;20035;-75
2022/10/14 00:28:14;;;;;;;70.43;43.40;;;;;;;-148.88;100.00;75728.47;4955756;29;20031;-75
2022/10/14 00:30:40;;;;;;;70.00;42.35;;;;;;;-148.88;100.00;75726.44;4956071;28;20035;-75
2022/10/14 00:33:05;;;;;;;75.32;44.13;;;;;;;-148.88;100.00;75728.47;4955734;29;20030;-75
2022/10/14 00:35:31;;;;;;;69.70;43.33;;;;;;;-148.88;100.00;75718.31;4955825;28;20394;-75
2022/10/14 00:37:57;;;;;;;68.18;41.50;;;;;;;-148.88;100.00;75720.34;4955579;28;20019;-75
2022/10/14 00:40:23;;;;;;;70.75;42.13;;;;;;;-148.88;100.00;75724.41;4954369;28;20031;-75
2022/10/14 00:42:49;;;;;;;67.85;40.97;;;;;;;-148.88;100.00;75724.41;4955465;28;20039;-75
2022/10/14 00:45:19;;;;;;;68.50;41.45;;;;;;;-148.88;100.00;75732.53;4955466;29;20054;-75
2022/10/14 00:47:46;;;;;;;70.70;42.72;;;;;;;-148.88;100.00;75744.72;4955733;28;20031;-75
2022/10/14 00:50:14;;;;;;;68.68;40.28;;;;;;;-148.88;100.00;75736.59;4955601;28;20496;-75
2022/10/14 00:52:40;;;;;;;66.35;42.13;;;;;;;-148.88;100.00;75734.56;4954072;28;20051;-75
2022/10/14 00:55:17;;;;;;;64.47;39.72;;;;;;;-148.88;100.00;75738.63;4955374;28;20027;-75
2022/10/14 00:57:43;;;;;;;65.40;39.30;;;;;;;-148.88;100.00;75744.72;4955454;28;20023;-75
2022/10/14 01:00:15;;;;;;;65.70;39.75;;;;;;;-148.88;100.00;75732.53;4955529;28;20074;-75
2022/10/14 01:02:41;;;;;;;63.95;39.05;;;;;;;-148.88;100.00;75740.66;4955143;28;20031;-75
2022/10/14 01:05:09;;;;;;;59.97;38.40;;;;;;;-148.88;100.00;75744.72;4955214;29;20134;-75
2022/10/14 01:07:40;;;;;;;57.95;38.90;;;;;;;-148.88;100.00;75742.69;4954093;29;20031;-75
2022/10/14 01:10:50;;;;;;;58.35;38.38;;;;;;;-148.88;100.00;75750.81;4955053;29;20019;-75
2022/10/14 01:13:30;;;;;;;59.70;38.05;;;;;;;-148.88;100.00;75748.78;4949562;29;20043;-75
2022/10/14 01:16:10;;;;;;;57.17;36.17;;;;;;;-148.88;100.00;75760.97;4953814;28;20027;-75
2022/10/14 01:18:57;;;;;;;53.40;35.42;;;;;;;-148.88;100.00;75756.91;4953754;29;20030;-75
2022/10/14 01:21:36;;;;;;;50.97;33.00;;;;;;;-148.88;100.00;75760.97;4954934;28;20031;-75
2022/10/14 01:24:27;;;;;;;55.75;35.53;;;;;;;-148.88;100.00;75765.03;4955127;28;20035;-75
2022/10/14 01:27:10;;;;;;;51.10;34.45;;;;;;;-148.88;100.00;75773.16;4955067;28;20031;-75
2022/10/14 01:30:01;;;;;;;52.40;34.53;;;;;;;-148.88;100.00;75777.22;4955062;29;20027;-75
2022/10/14 01:33:06;;;;;;;51.13;34.15;;;;;;;-148.88;100.00;75777.22;4955099;28;20023;-75
2022/10/14 01:35:46;;;;;;;49.95;33.80;;;;;;;-148.88;100.00;75779.25;4953513;29;20114;-76
2022/10/14 01:38:35;;;;;;;47.35;33.15;;;;;;;-148.88;100.00;75781.28;4955223;29;20019;-75
2022/10/14 01:41:10;;;;;;;52.40;34.85;;;;;;;-148.88;100.00;75773.16;4949547;28;20527;-75
2022/10/14 01:43:38;;;;;;;53.20;35.17;;;;;;;-148.88;100.00;75773.16;4953783;29;20045;-75
2022/10/14 01:46:06;;;;;;;57.97;34.55;;;;;;;-148.88;100.00;75773.16;4953357;29;20117;-75
2022/10/14 01:48:36;;;;;;;54.47;35.20;;;;;;;-148.88;100.00;75771.13;4953334;28;20520;-75
2022/10/14 01:51:07;;;;;;;53.58;34.83;;;;;;;-148.88;100.00;75767.06;4954779;28;20032;-75
2022/10/14 01:53:39;;;;;;;50.22;32.97;;;;;;;-148.88;100.00;75781.28;4953290;29;20050;-75
2022/10/14 01:56:07;;;;;;;57.38;34.20;;;;;;;-148.88;100.00;75793.47;4984429;23;20130;-84
2022/10/14 01:58:35;;;;;;;51.15;33.20;;;;;;;-148.88;100.00;75799.56;4982619;28;20057;-84
2022/10/14 02:01:05;;;;;;;49.55;32.28;;;;;;;-148.88;100.00;75793.47;4982849;28;20023;-84
2022/10/14 02:03:42;;;;;;;51.22;33.22;;;;;;;-148.88;100.00;75789.41;4982514;28;20050;-83
2022/10/14 02:06:15;;;;;;;51.15;32.58;;;;;;;-148.88;100.00;75803.63;4982560;28;20027;-83
2022/10/14 02:09:02;;;;;;;52.08;32.40;;;;;;;-148.88;100.00;75807.69;4988092;28;20019;-84
2022/10/14 02:11:51;;;;;;;47.03;31.35;;;;;;;-148.88;100.00;75817.84;4986153;28;20457;-84
2022/10/14 02:14:31;;;;;;;52.35;32.65;;;;;;;-148.88;100.00;75815.81;4986402;28;20026;-84
2022/10/14 02:17:18;;;;;;;46.13;30.58;;;;;;;-148.88;100.00;75805.66;4987816;28;20074;-84
2022/10/14 02:20:00;;;;;;;46.08;30.00;;;;;;;-148.88;100.00;75813.78;4983868;28;20023;-83
2022/10/14 02:22:42;;;;;;;45.40;30.95;;;;;;;-148.88;100.00;75803.63;4985572;28;20433;-83
2022/10/14 02:25:23;;;;;;;50.17;32.63;;;;;;;-148.88;100.00;75807.69;4986634;28;20045;-83
2022/10/14 02:27:50;;;;;;;47.33;31.30;;;;;;;-148.88;100.00;75809.72;4987591;28;20023;-83
2022/10/14 02:30:17;;;;;;;48.67;32.20;;;;;;;-148.88;100.00;75811.75;4989138;28;20033;-83
2022/10/14 02:32:45;;;;;;;47.63;31.52;;;;;;;-148.88;100.00;75805.66;4987467;28;20023;-83
2022/10/14 02:35:17;;;;;;;47.10;30.88;;;;;;;-148.88;100.00;75809.72;4987511;28;20027;-85
2022/10/14 02:37:44;;;;;;;50.58;32.45;;;;;;;-148.88;100.00;75807.69;4988019;28;20022;-84
2022/10/14 02:40:15;;;;;;;47.53;31.27;;;;;;;-148.88;100.00;75817.84;4986543;28;20027;-85
2022/10/14 02:42:41;;;;;;;55.65;33.05;;;;;;;-148.88;100.00;75805.66;4987819;28;20030;-84
2022/10/14 02:45:09;;;;;;;50.60;32.72;;;;;;;-148.88;100.00;75815.81;4986522;28;20030;-83
2022/10/14 02:47:35;;;;;;;49.17;31.75;;;;;;;-148.88;100.00;75809.72;4987603;28;20176;-83
2022/10/14 02:50:00;;;;;;;51.63;31.10;;;;;;;-148.88;100.00;75821.91;4985877;28;20062;-82
2022/10/14 02:52:25;;;;;;;49.17;30.92;;;;;;;-148.88;100.00;75819.88;4985673;28;20027;-84
2022/10/14 02:54:51;;;;;;;46.92;30.25;;;;;;;-148.88;100.00;75825.97;4984039;28;20126;-83
2022/10/14 02:57:16;;;;;;;46.92;30.75;;;;;;;-148.88;100.00;75825.97;4985885;28;20122;-83
2022/10/14 02:59:41;;;;;;;45.53;29.08;;;;;;;-148.88;100.00;75830.03;4986731;28;20030;-82
2022/10/14 03:02:07;;;;;;;44.60;28.27;;;;;;;-148.88;100.00;75828.00;4985423;28;20034;-84
2022/10/14 03:04:33;;;;;;;49.22;30.30;;;;;;;-148.88;100.00;75832.06;4987441;28;20030;-83
2022/10/14 03:06:58;;;;;;;46.28;28.40;;;;;;;-148.88;100.00;75828.00;4981163;28;20027;-83
2022/10/14 03:09:24;;;;;;;47.38;30.65;;;;;;;-148.88;100.00;75830.03;4980967;28;20061;-82
2022/10/14 03:11:49;;;;;;;50.63;31.00;;;;;;;-148.88;100.00;75832.06;4980062;28;20601;-84
2022/10/14 03:14:15;;;;;;;48.38;30.17;;;;;;;-148.88;100.00;75821.91;4980064;28;20077;-85
2022/10/14 03:16:40;;;;;;;47.80;29.88;;;;;;;-148.88;100.00;75821.91;4981923;28;20058;-84
2022/10/14 03:19:05;;;;;;;46.88;30.65;;;;;;;-148.88;100.00;75819.88;4982954;28;20125;-83
2022/10/14 03:21:31;;;;;;;47.65;29.63;;;;;;;-148.88;100.00;75817.84;4981452;28;20077;-85
2022/10/14 03:23:56;;;;;;;50.22;31.67;;;;;;;-148.88;100.00;75821.91;4982600;28;20086;-84
2022/10/14 03:26:22;;;;;;;54.13;32.50;;;;;;;-148.88;100.00;75821.91;4981838;28;20049;-82
2022/10/14 03:28:48;;;;;;;47.53;30.25;;;;;;;-148.88;100.00;75813.78;4982397;28;20137;-82
2022/10/14 03:31:13;;;;;;;47.67;31.38;;;;;;;-148.88;100.00;75817.84;4978808;28;20035;-82
2022/10/14 03:33:39;;;;;;;49.60;31.58;;;;;;;-148.88;100.00;75811.75;4978539;28;20027;-83
2022/10/14 03:36:19;;;;;;;48.53;30.08;;;;;;;-148.88;100.00;75803.63;4978888;28;20027;-83
2022/10/14 03:38:45;;;;;;;51.15;31.08;;;;;;;-148.88;100.00;75795.50;5043078;23;20058;-82
2022/10/14 03:41:13;;;;;;;49.38;31.55;;;;;;;-148.88;100.00;75799.56;4977770;28;20094;-83
2022/10/14 03:43:39;;;;;;;49.75;31.08;;;;;;;-148.88;100.00;75791.44;4977153;28;20043;-83
2022/10/14 03:46:05;;;;;;;50.25;30.92;;;;;;;-148.88;100.00;75793.47;4981099;28;20033;-83
2022/10/14 03:48:33;;;;;;;47.28;30.33;;;;;;;-148.88;100.00;75793.47;4979705;28;20127;-81
2022/10/14 03:50:58;;;;;;;48.80;31.00;;;;;;;-148.88;100.00;75793.47;4980688;28;20051;-83
2022/10/14 03:53:23;;;;;;;48.67;29.98;;;;;;;-148.88;100.00;75789.41;4978590;28;20151;-82
2022/10/14 03:55:49;;;;;;;47.83;30.25;;;;;;;-148.88;100.00;75789.41;4978391;28;20497;-82
2022/10/14 03:58:14;;;;;;;49.25;30.50;;;;;;;-148.88;100.00;75789.41;4980405;28;20102;-81
2022/10/14 04:00:39;;;;;;;52.67;30.65;;;;;;;-148.88;100.00;75785.34;4979034;28;20018;-83
2022/10/14 04:03:05;;;;;;;46.47;30.60;;;;;;;-148.88;100.00;75787.38;4979666;28;20547;-83
2022/10/14 04:05:32;;;;;;;49.78;30.92;;;;;;;-148.88;100.00;75789.41;4979850;28;20023;-83
2022/10/14 04:08:01;;;;;;;50.58;31.88;;;;;;;-148.88;100.00;75789.41;4979384;28;20025;-83
2022/10/14 04:10:27;;;;;;;49.85;32.10;;;;;;;-148.88;100.00;75793.47;4962075;28;20454;-83
2022/10/14 04:12:54;;;;;;;48.38;30.95;;;;;;;-148.88;100.00;75795.50;4978722;28;20065;-83
2022/10/14 04:15:19;;;;;;;51.13;31.60;;;;;;;-148.88;100.00;75787.38;4977319;28;20481;-83
2022/10/14 04:17:45;;;;;;;53.08;32.75;;;;;;;-148.88;100.00;75781.28;4975886;28;20026;-84
2022/10/14 04:20:10;;;;;;;50.72;31.75;;;;;;;-148.88;100.00;75775.19;4975599;28;20030;-83
2022/10/14 04:22:36;;;;;;;51.58;32.47;;;;;;;-148.88;100.00;75781.28;4977620;28;20523;-83
2022/10/14 04:25:01;;;;;;;51.72;32.25;;;;;;;-148.88;100.00;75781.28;4977146;28;20049;-83
2022/10/14 04:27:27;;;;;;;52.63;32.17;;;;;;;-148.88;100.00;75777.22;4976000;28;20022;-82
2022/10/14 04:29:52;;;;;;;52.42;31.95;;;;;;;-148.88;100.00;75777.22;4975604;28;20034;-82
2022/10/14 04:32:18;;;;;;;47.13;30.27;;;;;;;-148.88;100.00;75775.19;4976408;28;20420;-83
2022/10/14 04:34:44;;;;;;;54.42;34.53;;;;;;;-148.88;100.00;75777.22;4976443;28;20141;-83
2022/10/14 04:37:09;;;;;;;53.75;33.25;;;;;;;-148.88;100.00;75779.25;4976277;28;20058;-84
2022/10/14 04:39:35;;;;;;;58.33;34.95;;;;;;;-148.88;100.00;75777.22;4976863;28;20496;-84
2022/10/14 04:42:00;;;;;;;51.97;33.13;;;;;;;-148.88;100.00;75771.13;4977213;28;20030;-83
2022/10/14 04:44:26;;;;;;;56.95;34.50;;;;;;;-148.88;100.00;75765.03;4983195;28;20455;-83
2022/10/14 04:46:51;;;;;;;55.08;33.22;;;;;;;-148.88;100.00;75767.06;4984653;28;20030;-82
2022/10/14 04:49:17;;;;;;;52.95;33.83;;;;;;;-148.88;100.00;75760.97;4981057;28;20018;-83
2022/10/14 04:51:42;;;;;;;60.80;33.67;;;;;;;-148.88;100.00;75763.00;4981616;28;20378;-82
2022/10/14 04:54:07;;;;;;;54.38;34.22;;;;;;;-148.88;100.00;75767.06;4975630;28;20025;-81
2022/10/14 04:56:33;;;;;;;55.05;34.28;;;;;;;-148.88;100.00;75767.06;4976708;28;20027;-83
2022/10/14 04:58:58;;;;;;;52.15;32.70;;;;;;;-148.88;100.00;75760.97;4980171;28;20481;-83
2022/10/14 05:01:23;;;;;;;54.00;33.63;;;;;;;-148.88;100.00;75765.03;4981653;28;20022;-84
2022/10/14 05:03:50;;;;;;;55.15;34.50;;;;;;;-148.88;100.00;75769.09;4981210;28;20481;-83
2022/10/14 05:06:16;;;;;;;55.25;34.65;;;;;;;-148.88;100.00;75760.97;4980210;28;20023;-84
2022/10/14 05:08:41;;;;;;;51.90;32.30;;;;;;;-148.88;100.00;75756.91;4979028;28;20054;-84
2022/10/14 05:11:06;;;;;;;55.03;33.35;;;;;;;-148.88;100.00;75754.88;4979153;28;20026;-84
2022/10/14 05:13:32;;;;;;;54.67;33.85;;;;;;;-148.88;100.00;75756.91;4981115;28;20034;-83
2022/10/14 05:15:57;;;;;;;55.72;32.63;;;;;;;-148.88;100.00;75748.78;4974960;28;20034;-85
2022/10/14 05:18:22;;;;;;;56.67;33.97;;;;;;;-148.88;100.00;75752.84;4973421;28;20397;-86
2022/10/14 05:20:48;;;;;;;57.67;34.80;;;;;;;-148.88;100.00;75760.97;4973402;28;20527;-85
2022/10/14 05:23:20;;;;;;;52.40;33.08;;;;;;;-148.88;100.00;75752.84;4973690;28;20037;-85
2022/10/14 05:25:55;;;;;;;56.03;34.40;;;;;;;-148.88;100.00;75748.78;4973486;28;20023;-85
2022/10/14 05:28:24;;;;;;;54.30;33.35;;;;;;;-148.88;100.00;75748.78;4973560;28;20015;-85
2022/10/14 05:30:49;;;;;;;58.50;33.88;;;;;;;-148.88;100.00;75752.84;4973796;28;20035;-84
2022/10/14 05:33:14;;;;;;;57.33;34.28;;;;;;;-148.88;100.00;75760.97;4973329;28;20038;-84
2022/10/14 05:35:41;;;;;;;55.92;34.45;;;;;;;-148.88;100.00;75752.84;4973232;28;20517;-84
2022/10/14 05:38:11;;;;;;;58.88;36.15;;;;;;;-148.88;100.00;75756.91;4974380;28;20026;-84
2022/10/14 05:40:36;;;;;;;56.38;34.70;;;;;;;-148.88;100.00;75760.97;4973128;28;20497;-84
2022/10/14 05:43:02;;;;;;;52.65;34.53;;;;;;;-148.88;100.00;75754.88;4972739;28;20038;-84
2022/10/14 05:45:27;;;;;;;59.65;35.30;;;;;;;-148.88;100.00;75748.78;4973720;28;20038;-84
2022/10/14 05:47:53;;;;;;;55.45;35.05;;;;;;;-148.88;100.00;75748.78;4974849;28;20029;-85
2022/10/14 05:50:19;;;;;;;58.92;35.10;;;;;;;-148.88;100.00;75758.94;4974427;28;20038;-84
2022/10/14 05:52:44;;;;;;;56.30;35.53;;;;;;;-148.88;100.00;75746.75;4973369;28;20023;-84
2022/10/14 05:55:09;;;;;;;59.53;35.88;;;;;;;-148.88;100.00;75746.75;4972988;28;20027;-84
2022/10/14 05:57:35;;;;;;;57.40;35.00;;;;;;;-148.88;100.00;75746.75;4973602;28;20066;-83
2022/10/14 06:00:00;;;;;;;56.63;36.03;;;;;;;-148.88;100.00;75738.63;4974259;28;20027;-84
2022/10/14 06:02:30;;;;;;;57.83;34.92;;;;;;;-148.88;100.00;75744.72;4973060;28;20112;-85
2022/10/14 06:04:59;;;;;;;59.35;36.50;;;;;;;-148.88;100.00;75744.72;4974232;28;20109;-84
2022/10/14 06:07:24;;;;;;;56.88;35.22;;;;;;;-148.88;100.00;75744.72;4973072;28;20038;-83
2022/10/14 06:09:55;;;;;;;59.95;36.08;;;;;;;-148.88;100.00;75742.69;4973315;28;20037;-84
2022/10/14 06:12:24;;;;;;;59.95;35.28;;;;;;;-148.88;100.00;75738.63;4974434;28;20042;-84
2022/10/14 06:14:49;;;;;;;57.97;34.47;;;;;;;-148.88;100.00;75734.56;4974455;28;20034;-84
2022/10/14 06:17:14;;;;;;;57.75;34.65;;;;;;;-148.88;100.00;75728.47;4973114;28;20077;-84
2022/10/14 06:19:40;;;;;;;57.40;34.28;;;;;;;-148.88;100.00;75728.47;4972845;28;20429;-85
2022/10/14 06:22:05;;;;;;;56.33;34.40;;;;;;;-148.88;100.00;75732.53;4973454;28;20023;-84
2022/10/14 06:24:31;;;;;;;60.95;35.05;;;;;;;-148.88;100.00;75728.47;4972780;28;20191;-84
2022/10/14 06:26:56;;;;;;;62.83;36.22;;;;;;;-148.88;100.00;75726.44;4973905;28;20027;-84
2022/10/14 06:29:25;;;;;;;62.47;37.63;;;;;;;-148.88;100.00;75720.34;4972963;28;20019;-84
2022/10/14 06:31:50;;;;;;;66.65;38.05;;;;;;;-148.88;100.00;75720.34;4974046;28;20085;-84
2022/10/14 06:34:16;;;;;;;67.95;41.03;;;;;;;-148.88;100.00;75720.34;4972567;28;20128;-83
2022/10/14 06:36:41;;;;;;;73.22;42.33;;;;;;;-148.88;100.00;75714.25;4972840;28;20023;-84
2022/10/14 06:39:06;;;;;;;70.57;40.28;;;;;;;-148.88;100.00;75704.09;4974255;28;20117;-84
2022/10/14 06:41:32;;;;;;;79.55;45.53;;;;;;;-148.88;100.00;75695.97;4975269;28;20023;-84
2022/10/14 06:43:57;;;;;;;82.53;47.55;;;;;;;-148.88;100.00;75700.03;4973692;28;20062;-84
2022/10/14 06:46:24;;;;;;;86.53;45.55;;;;;;;-148.88;100.00;75700.03;4972779;28;20035;-84
2022/10/14 06:48:50;;;;;;;80.97;43.00;;;;;;;-148.88;100.00;75700.03;4972330;28;20504;-84
2022/10/14 06:51:18;;;;;;;77.28;40.83;;;;;;;-148.88;100.00;75700.03;4974499;28;20035;-83
2022/10/14 06:53:46;;;;;;;81.10;42.03;;;;;;;-148.88;100.00;75698.00;4975159;28;20477;-85
2022/10/14 06:56:12;;;;;;;77.55;39.55;;;;;;;-148.88;100.00;75695.97;4976565;28;20027;-84
2022/10/14 06:58:37;;;;;;;83.53;40.85;;;;;;;-148.88;100.00;75700.03;4975886;28;20379;-85
2022/10/14 07:01:05;;;;;;;86.95;41.97;;;;;;;-148.88;100.00;75698.00;4976084;28;20039;-84
2022/10/14 07:03:38;;;;;;;88.93;42.45;;;;;;;-148.88;100.00;75698.00;4976170;28;20019;-85
2022/10/14 07:06:05;;;;;;;97.72;44.25;;;;;;;-148.88;100.00;75695.97;4975686;28;20030;-84
2022/10/14 07:08:31;;;;;;;101.55;45.58;;;;;;;-148.88;100.00;75691.91;4976849;28;20065;-84
2022/10/14 07:10:58;;;;;;;106.68;45.90;;;;;;;-148.88;100.00;75693.94;4975843;28;20054;-85
2022/10/14 07:13:24;;;;;;;101.32;44.50;;;;;;;-148.88;100.00;75689.88;4977592;28;20027;-85
2022/10/14 07:15:55;;;;;;;110.30;47.28;;;;;;;-148.88;100.00;75687.84;4976905;28;20074;-85
2022/10/14 07:18:20;;;;;;;111.88;45.58;;;;;;;-148.88;100.00;75681.75;4976635;28;20022;-84
2022/10/14 07:20:48;;;;;;;115.18;47.13;;;;;;;-148.88;100.00;75683.78;4976723;28;20398;-84
2022/10/14 07:23:14;;;;;;;117.88;46.65;;;;;;;-148.88;100.00;75681.75;4975287;28;20047;-83
2022/10/14 07:25:39;;;;;;;118.03;50.08;;;;;;;-148.88;100.00;75675.66;4975484;28;20027;-85
2022/10/14 07:28:05;;;;;;;124.72;49.20;;;;;;;-148.88;100.00;75671.59;4975151;28;20025;-84
2022/10/14 07:30:34;;;;;;;127.35;51.65;;;;;;;-148.88;100.00;75675.66;4975424;28;20034;-85
2022/10/14 07:33:07;;;;;;;125.47;50.17;;;;;;;-148.88;100.00;75671.59;4976371;28;20034;-85
2022/10/14 07:35:32;;;;;;;124.47;47.45;;;;;;;-148.88;100.00;75659.41;4976477;28;20022;-85
2022/10/14 07:38:00;;;;;;;118.35;48.72;;;;;;;-148.88;100.00;75655.34;4976828;28;20082;-85
2022/10/14 07:40:26;;;;;;;120.60;49.25;;;;;;;-148.88;100.00;75655.34;4974891;28;20033;-86
2022/10/14 07:42:51;;;;;;;130.90;51.15;;;;;;;-148.88;100.00;75655.34;4975249;28;20031;-84
2022/10/14 07:45:19;;;;;;;122.53;49.22;;;;;;;-148.88;100.00;75647.22;4976109;28;20027;-84
2022/10/14 07:47:49;;;;;;;116.93;47.65;;;;;;;-148.88;100.00;75637.06;4974896;28;20033;-85
2022/10/14 07:50:14;;;;;;;106.75;45.55;;;;;;;-148.88;100.00;75635.03;4976179;28;20035;-83
2022/10/14 07:52:45;;;;;;;109.80;45.00;;;;;;;-148.88;100.00;75630.97;4975288;28;20397;-86
2022/10/14 07:55:11;;;;;;;118.05;47.10;;;;;;;-148.88;100.00;75635.03;4974806;28;20023;-84
2022/10/14 07:57:36;;;;;;;108.13;44.85;;;;;;;-148.88;100.00;75622.84;4976243;28;20026;-85
2022/10/14 08:00:03;;;;;;;109.50;43.17;;;;;;;-148.88;100.00;75628.94;4975234;28;20480;-85
2022/10/14 08:02:28;;;;;;;100.13;42.05;;;;;;;-148.88;100.00;75612.69;4976313;28;20066;-84
2022/10/14 08:04:54;;;;;;;103.97;42.33;;;;;;;-148.88;100.00;75610.66;4974399;28;20023;-84
2022/10/14 08:07:21;;;;;;;105.43;42.67;;;;;;;-148.88;100.00;75606.59;4975682;28;20027;-84
2022/10/14 08:09:46;;;;;;;88.95;39.63;;;;;;;-148.88;100.00;75606.59;4976163;28;20436;-84
2022/10/14 08:12:11;;;;;;;93.95;38.55;;;;;;;-148.88;100.00;75604.56;4974574;28;20026;-84
2022/10/14 08:14:40;;;;;;;80.30;35.38;;;;;;;-148.88;100.00;75594.44;4974586;28;20019;-85
2022/10/14 08:17:05;;;;;;;65.60;32.35;;;;;;;-148.88;100.00;75590.34;4974497;28;20023;-85
2022/10/14 08:19:30;;;;;;;71.65;32.95;;;;;;;-148.88;100.00;75602.53;4974267;28;20500;-84
2022/10/14 08:21:56;;;;;;;70.50;31.63;;;;;;;-148.88;100.00;75598.47;4974290;28;20033;-84
2022/10/14 08:24:21;;;;;;;64.57;31.83;;;;;;;-148.88;100.00;75592.38;4974694;28;20030;-84
2022/10/14 08:26:52;;;;;;;60.22;29.92;;;;;;;-148.88;100.00;75596.44;4974485;28;20473;-85
2022/10/14 08:29:18;;;;;;;66.22;31.27;;;;;;;-148.88;100.00;75582.22;4974580;28;20026;-84
2022/10/14 08:31:44;;;;;;;71.10;31.38;;;;;;;-148.88;100.00;75582.22;4974274;28;20489;-84
2022/10/14 08:34:10;;;;;;;66.47;32.50;;;;;;;-148.88;100.00;75582.22;4974266;28;20081;-83
2022/10/14 08:36:36;;;;;;;62.47;29.63;;;;;;;-148.88;100.00;75570.03;4974531;28;20057;-83
2022/10/14 08:39:02;;;;;;;47.15;25.15;;;;;;;-148.88;100.00;75563.97;4973817;28;20384;-83
2022/10/14 08:41:30;;;;;;;37.95;22.75;;;;;;;-148.88;100.00;75553.81;4974049;28;20468;-83
2022/10/14 08:43:58;;;;;;;35.03;21.10;;;;;;;-148.88;100.00;75545.69;4974369;28;20478;-83
2022/10/14 08:46:37;;;;;;;34.40;21.40;;;;;;;-148.88;100.00;75529.44;4974141;28;20027;-83
2022/10/14 08:49:13;;;;;;;34.22;20.67;;;;;;;-148.88;100.00;75529.44;4975519;28;20085;-84
2022/10/14 08:51:44;;;;;;;32.03;19.60;;;;;;;-148.88;100.00;75521.31;4974522;28;20489;-83
2022/10/14 08:54:14;;;;;;;27.92;18.10;;;;;;;-148.88;100.00;75501.00;4974249;28;20066;-83
2022/10/14 08:56:41;;;;;;;26.70;18.05;;;;;;;-148.88;100.00;75484.75;4974661;28;20421;-82
2022/10/14 08:59:13;;;;;;;28.13;18.02;;;;;;;-148.88;100.00;75460.38;4974614;28;20026;-82
2022/10/14 09:02:00;;;;;;;25.30;15.38;;;;;;;-148.88;100.00;75446.16;4973973;28;20081;-83
2022/10/14 09:04:25;;;;;;;20.42;14.73;;;;;;;-148.88;100.00;75436.00;4975429;28;20038;-83
2022/10/14 09:06:53;;;;;;;15.70;11.80;;;;;;;-148.88;100.00;75397.41;4973876;28;20393;-83
2022/10/14 09:09:40;;;;;;;17.30;12.48;;;;;;;-148.88;100.00;75383.19;4973699;28;20019;-83
2022/10/14 09:12:15;;;;;;;18.08;12.45;;;;;;;-148.88;100.00;75387.25;4973765;28;20054;-82
2022/10/14 09:14:45;;;;;;;15.27;11.38;;;;;;;-148.88;100.00;75397.41;4974461;28;20037;-84
2022/10/14 09:17:18;;;;;;;15.50;11.90;;;;;;;-148.88;100.00;75407.56;4974725;28;20030;-84
2022/10/14 09:19:50;;;;;;;17.77;11.35;;;;;;;-148.88;100.00;75399.44;4973695;28;20027;-83
2022/10/14 09:22:16;;;;;;;12.63;9.93;;;;;;;-148.88;100.00;75403.50;4974303;28;20026;-81
2022/10/14 09:24:45;;;;;;;11.13;9.00;;;;;;;-148.88;100.00;75381.16;4973862;28;20038;-84
2022/10/14 09:27:16;;;;;;;11.50;9.52;;;;;;;-148.88;100.00;75379.13;4973781;28;20046;-83
2022/10/14 09:29:49;;;;;;;12.88;9.10;;;;;;;-148.88;100.00;75373.03;4973095;28;20046;-82
2022/10/14 09:32:25;;;;;;;11.43;8.20;;;;;;;-148.88;100.00;75356.78;4973481;28;20039;-82
2022/10/14 09:34:51;;;;;;;11.82;8.95;;;;;;;-148.88;100.00;75338.50;4973098;28;20034;-83
2022/10/14 09:37:34;;;;;;;13.88;9.57;;;;;;;-148.88;100.00;75328.34;4973208;28;20030;-83
2022/10/14 09:40:11;;;;;;;7.93;7.10;;;;;;;-148.88;100.00;75348.66;4987393;23;20039;-75
2022/10/14 09:42:43;;;;;;;10.57;7.93;;;;;;;-148.88;100.00;75346.63;4972250;28;20122;-75
2022/10/14 09:45:14;;;;;;;10.30;7.82;;;;;;;-148.88;100.00;75346.63;4973558;28;20026;-76
2022/10/14 09:47:57;;;;;;;8.73;7.20;;;;;;;-148.88;100.00;75346.63;4973459;28;20033;-75
2022/10/14 09:50:33;;;;;;;11.07;7.57;;;;;;;-148.88;100.00;75348.66;4973496;28;20023;-75
2022/10/14 09:53:17;;;;;;;8.40;7.50;;;;;;;-148.88;100.00;75348.66;4973677;28;20026;-75
2022/10/14 09:56:12;;;;;;;8.60;7.40;;;;;;;-148.88;100.00;75346.63;4972190;28;20027;-75
2022/10/14 09:58:46;;;;;;;9.45;7.22;;;;;;;-148.88;100.00;75308.03;4973353;28;20035;-75
2022/10/14 10:01:15;;;;;;;;;;;;;;;-148.88;100.00;75275.56;4973709;28;20033;-76
2022/10/14 10:03:41;;;;;;;7.80;6.30;;;;;;;-148.88;100.00;75281.66;4973354;28;20000;-75
2022/10/14 10:06:10;;;;;;;7.78;6.35;;;;;;;-148.88;100.00;75281.66;4973325;28;20210;-76
2022/10/14 10:08:54;;;;;;;7.38;6.35;;;;;;;-148.88;100.00;75265.41;4973562;28;20027;-75
2022/10/14 10:11:29;;;;;;;9.15;6.95;;;;;;;-148.88;100.00;75263.38;4973128;28;20081;-76
2022/10/14 10:13:55;;;;;;;7.70;6.55;;;;;;;-148.88;100.00;75257.28;4973202;28;20034;-75
2022/10/14 10:16:33;;;;;;;8.63;6.43;;;;;;;-148.88;100.00;75232.91;4973529;28;20027;-76
2022/10/14 10:19:20;;;;;;;6.45;5.78;;;;;;;-148.88;100.00;75208.53;4973440;28;20054;-75
2022/10/14 10:21:46;;;;;;;8.25;6.22;;;;;;;-148.88;98.60;75200.41;4971874;28;20057;-75
2022/10/14 10:24:22;;;;;;;7.53;5.88;;;;;;;-148.88;99.10;75184.16;4973237;28;20548;-75
2022/10/14 10:26:48;;;;;;;6.30;5.45;;;;;;;-148.88;98.36;75176.03;4973351;28;20023;-75
2022/10/14 10:29:29;;;;;;;7.13;5.90;;;;;;;-148.88;97.58;75194.31;4976644;28;20113;-76
2022/10/14 10:32:18;;;;;;;7.20;6.20;;;;;;;-148.88;97.79;75208.53;4975538;28;20026;-75
2022/10/14 10:34:56;;;;;;;7.20;6.43;;;;;;;-148.88;98.48;75214.63;4976765;28;20027;-75
2022/10/14 10:37:30;;;;;;;7.38;5.88;;;;;;;-148.88;98.63;75214.63;4976344;28;20030;-74
2022/10/14 10:40:23;;;;;;;6.68;5.97;;;;;;;-148.88;99.10;75216.66;4977199;28;20025;-75
2022/10/14 10:43:13;;;;;;;7.80;6.67;;;;;;;-148.88;99.49;75208.53;4976735;28;20114;-75
2022/10/14 10:45:55;;;;;;;8.32;7.40;;;;;;;-148.88;100.00;75194.31;4975966;28;20142;-75
2022/10/14 10:48:28;;;;;;;8.35;7.35;;;;;;;-148.88;99.31;75165.88;4976845;28;20023;-77
2022/10/14 10:51:04;;;;;;;7.68;6.90;;;;;;;-148.88;99.28;75125.25;4976856;28;20405;-76
2022/10/14 10:53:44;;;;;;;8.60;7.03;;;;;;;-148.88;98.94;75117.13;4976500;28;20517;-75
2022/10/14 10:56:38;;;;;;;7.55;6.35;;;;;;;-148.88;97.61;75090.72;4976728;28;20053;-75
2022/10/14 10:59:34;;;;;;;6.35;5.75;;;;;;;-148.88;96.03;75056.22;4976143;28;20054;-75
2022/10/14 11:02:18;;;;;;;6.75;5.47;;;;;;;-148.88;93.36;75017.63;4976618;28;20023;-76
2022/10/14 11:05:01;;;;;;;6.82;4.93;;;;;;;-148.88;92.68;74952.63;4976445;28;20541;-76
2022/10/14 11:14:00;;;;;;;4.65;3.88;;;;;;;-148.88;88.26;74901.88;4976783;28;20041;-76
2022/10/14 11:16:32;;;;;;;3.22;2.67;;;;;;;-148.88;86.72;74954.66;4973804;28;20038;-76